sensor_id;sensor_type;location;lat;lon;timestamp;temperature;humidity
34153;DHT22;20426;48.372;10.888;2023-03-02T00:00:13;1.90;99.90
34153;DHT22;20426;48.372;10.888;2023-03-02T00:00:46;1.90;99.90
34153;DHT22;20426;48.372;10.888;2023-03-02T00:01:17;2.00;99.90
34153;DHT22;20426;48.372;10.888;2023-03-02T00:02:23;2.00;99.90
34153;DHT22;20426;48.372;10.888;2023-03-02T00:02:54;1.90;99.90
34153;DHT22;20426;48.372;10.888;2023-03-02T00:03:25;1.90;99.90
34153;DHT22;20426;48.372;10.888;2023-03-02T00:03:58;1.90;99.90
34153;DHT22;20426;48.372;10.888;2023-03-02T00:04:51;1.90;99.90
34153;DHT22;20426;48.372;10.888;2023-03-02T00:05:22;1.90;99.90
34153;DHT22;20426;48.372;10.888;2023-03-02T00:05:55;1.90;99.90
34153;DHT22;20426;48.372;10.888;2023-03-02T00:06:27;1.90;99.90
34153;DHT22;20426;48.372;10.888;2023-03-02T00:07:05;1.90;99.90
34153;DHT22;20426;48.372;10.888;2023-03-02T00:07:37;1.90;99.90
34153;DHT22;20426;48.372;10.888;2023-03-02T00:08:08;1.90;99.90
34153;DHT22;20426;48.372;10.888;2023-03-02T00:08:39;1.80;99.90
34153;DHT22;20426;48.372;10.888;2023-03-02T00:09:10;1.80;99.90
34153;DHT22;20426;48.372;10.888;2023-03-02T00:09:41;1.80;99.90
34153;DHT22;20426;48.372;10.888;2023-03-02T00:10:13;1.80;99.90
34153;DHT22;20426;48.372;10.888;2023-03-02T00:10:44;1.80;99.90
34153;DHT22;20426;48.372;10.888;2023-03-02T00:11:15;1.80;99.90
34153;DHT22;20426;48.372;10.888;2023-03-02T00:11:46;1.80;99.90
34153;DHT22;20426;48.372;10.888;2023-03-02T00:12:17;1.70;99.90
34153;DHT22;20426;48.372;10.888;2023-03-02T00:12:47;1.80;99.90
34153;DHT22;20426;48.372;10.888;2023-03-02T00:13:18;1.80;99.90
34153;DHT22;20426;48.372;10.888;2023-03-02T00:13:49;1.80;99.90
34153;DHT22;20426;48.372;10.888;2023-03-02T00:14:20;1.80;99.90
34153;DHT22;20426;48.372;10.888;2023-03-02T00:14:50;1.80;99.90
34153;DHT22;20426;48.372;10.888;2023-03-02T00:15:21;1.80;99.90
34153;DHT22;20426;48.372;10.888;2023-03-02T00:15:52;1.80;99.90
34153;DHT22;20426;48.372;10.888;2023-03-02T00:16:22;1.80;99.90
34153;DHT22;20426;48.372;10.888;2023-03-02T00:16:53;1.80;99.90
34153;DHT22;20426;48.372;10.888;2023-03-02T00:17:24;1.80;99.90
34153;DHT22;20426;48.372;10.888;2023-03-02T00:17:57;1.80;99.90
34153;DHT22;20426;48.372;10.888;2023-03-02T00:18:28;1.80;99.90
34153;DHT22;20426;48.372;10.888;2023-03-02T00:18:59;1.80;99.90
34153;DHT22;20426;48.372;10.888;2023-03-02T00:19:30;1.80;99.90
34153;DHT22;20426;48.372;10.888;2023-03-02T00:20:00;1.80;99.90
34153;DHT22;20426;48.372;10.888;2023-03-02T00:20:40;1.90;99.90
34153;DHT22;20426;48.372;10.888;2023-03-02T00:21:11;1.90;99.90
34153;DHT22;20426;48.372;10.888;2023-03-02T00:21:41;1.80;99.90
34153;DHT22;20426;48.372;10.888;2023-03-02T00:22:12;1.80;99.90
34153;DHT22;20426;48.372;10.888;2023-03-02T00:22:44;1.80;99.90
34153;DHT22;20426;48.372;10.888;2023-03-02T00:23:15;1.80;99.90
34153;DHT22;20426;48.372;10.888;2023-03-02T00:23:46;1.80;99.90
34153;DHT22;20426;48.372;10.888;2023-03-02T00:24:16;1.80;99.90
34153;DHT22;20426;48.372;10.888;2023-03-02T00:24:47;1.80;99.90
34153;DHT22;20426;48.372;10.888;2023-03-02T00:25:18;1.80;99.90
34153;DHT22;20426;48.372;10.888;2023-03-02T00:25:49;1.80;99.90
34153;DHT22;20426;48.372;10.888;2023-03-02T00:26:20;1.80;99.90
34153;DHT22;20426;48.372;10.888;2023-03-02T00:26:50;1.80;99.90
34153;DHT22;20426;48.372;10.888;2023-03-02T00:27:21;1.70;99.90
34153;DHT22;20426;48.372;10.888;2023-03-02T00:27:53;1.80;99.90
34153;DHT22;20426;48.372;10.888;2023-03-02T00:28:23;1.80;99.90
34153;DHT22;20426;48.372;10.888;2023-03-02T00:28:54;1.80;99.90
34153;DHT22;20426;48.372;10.888;2023-03-02T00:29:25;1.70;99.90
34153;DHT22;20426;48.372;10.888;2023-03-02T00:29:56;1.70;99.90
34153;DHT22;20426;48.372;10.888;2023-03-02T00:30:27;1.70;99.90
34153;DHT22;20426;48.372;10.888;2023-03-02T00:30:58;1.70;99.90
34153;DHT22;20426;48.372;10.888;2023-03-02T00:31:29;1.70;99.90
34153;DHT22;20426;48.372;10.888;2023-03-02T00:32:00;1.70;99.90
34153;DHT22;20426;48.372;10.888;2023-03-02T00:32:31;1.70;99.90
34153;DHT22;20426;48.372;10.888;2023-03-02T00:33:02;1.70;99.90
34153;DHT22;20426;48.372;10.888;2023-03-02T00:33:33;1.70;99.90
34153;DHT22;20426;48.372;10.888;2023-03-02T00:34:04;1.70;99.90
34153;DHT22;20426;48.372;10.888;2023-03-02T00:34:34;1.70;99.90
34153;DHT22;20426;48.372;10.888;2023-03-02T00:35:06;1.70;99.90
34153;DHT22;20426;48.372;10.888;2023-03-02T00:35:38;1.70;99.90
34153;DHT22;20426;48.372;10.888;2023-03-02T00:36:17;1.70;99.90
34153;DHT22;20426;48.372;10.888;2023-03-02T00:36:48;1.80;99.90
34153;DHT22;20426;48.372;10.888;2023-03-02T00:37:19;1.70;99.90
34153;DHT22;20426;48.372;10.888;2023-03-02T00:37:50;1.70;99.90
34153;DHT22;20426;48.372;10.888;2023-03-02T00:38:20;1.80;99.90
34153;DHT22;20426;48.372;10.888;2023-03-02T00:38:51;1.70;99.90
34153;DHT22;20426;48.372;10.888;2023-03-02T00:39:22;1.80;99.90
34153;DHT22;20426;48.372;10.888;2023-03-02T00:39:53;1.70;99.90
34153;DHT22;20426;48.372;10.888;2023-03-02T00:40:24;1.70;99.90
34153;DHT22;20426;48.372;10.888;2023-03-02T00:40:55;1.70;99.90
34153;DHT22;20426;48.372;10.888;2023-03-02T00:41:26;1.70;99.90
34153;DHT22;20426;48.372;10.888;2023-03-02T00:41:57;1.70;99.90
34153;DHT22;20426;48.372;10.888;2023-03-02T00:42:27;1.70;99.90
34153;DHT22;20426;48.372;10.888;2023-03-02T00:42:58;1.70;99.90
34153;DHT22;20426;48.372;10.888;2023-03-02T00:43:29;1.70;99.90
34153;DHT22;20426;48.372;10.888;2023-03-02T00:43:59;1.70;99.90
34153;DHT22;20426;48.372;10.888;2023-03-02T00:44:30;1.70;99.90
34153;DHT22;20426;48.372;10.888;2023-03-02T00:45:01;1.70;99.90
34153;DHT22;20426;48.372;10.888;2023-03-02T00:45:32;1.70;99.90
34153;DHT22;20426;48.372;10.888;2023-03-02T00:46:14;1.70;99.90
34153;DHT22;20426;48.372;10.888;2023-03-02T00:46:45;1.70;99.90
34153;DHT22;20426;48.372;10.888;2023-03-02T00:47:16;1.70;99.90
34153;DHT22;20426;48.372;10.888;2023-03-02T00:47:46;1.70;99.90
34153;DHT22;20426;48.372;10.888;2023-03-02T00:48:17;1.70;99.90
34153;DHT22;20426;48.372;10.888;2023-03-02T00:48:48;1.70;99.90
34153;DHT22;20426;48.372;10.888;2023-03-02T00:49:19;1.70;99.90
34153;DHT22;20426;48.372;10.888;2023-03-02T00:49:50;1.70;99.90
34153;DHT22;20426;48.372;10.888;2023-03-02T00:50:21;1.70;99.90
34153;DHT22;20426;48.372;10.888;2023-03-02T00:50:52;1.70;99.90
34153;DHT22;20426;48.372;10.888;2023-03-02T00:51:22;1.70;99.90
34153;DHT22;20426;48.372;10.888;2023-03-02T00:51:54;1.70;99.90
34153;DHT22;20426;48.372;10.888;2023-03-02T00:52:25;1.70;99.90
34153;DHT22;20426;48.372;10.888;2023-03-02T00:52:55;1.70;99.90
34153;DHT22;20426;48.372;10.888;2023-03-02T00:53:26;1.70;99.90
34153;DHT22;20426;48.372;10.888;2023-03-02T00:53:57;1.70;99.90
34153;DHT22;20426;48.372;10.888;2023-03-02T00:54:32;1.70;99.90
34153;DHT22;20426;48.372;10.888;2023-03-02T00:55:03;1.70;99.90
34153;DHT22;20426;48.372;10.888;2023-03-02T00:55:34;1.70;99.90
34153;DHT22;20426;48.372;10.888;2023-03-02T00:56:06;1.70;99.90
34153;DHT22;20426;48.372;10.888;2023-03-02T00:56:37;1.70;99.90
34153;DHT22;20426;48.372;10.888;2023-03-02T00:57:08;1.70;99.90
34153;DHT22;20426;48.372;10.888;2023-03-02T00:57:39;1.70;99.90
34153;DHT22;20426;48.372;10.888;2023-03-02T00:58:09;1.70;99.90
34153;DHT22;20426;48.372;10.888;2023-03-02T00:58:40;1.60;99.90
34153;DHT22;20426;48.372;10.888;2023-03-02T00:59:12;1.60;99.90
34153;DHT22;20426;48.372;10.888;2023-03-02T00:59:58;1.60;99.90
34153;DHT22;20426;48.372;10.888;2023-03-02T01:00:30;1.60;99.90
34153;DHT22;20426;48.372;10.888;2023-03-02T01:01:09;1.60;99.90
34153;DHT22;20426;48.372;10.888;2023-03-02T01:01:40;1.60;99.90
34153;DHT22;20426;48.372;10.888;2023-03-02T01:02:11;1.60;99.90
34153;DHT22;20426;48.372;10.888;2023-03-02T01:02:42;1.60;99.90
34153;DHT22;20426;48.372;10.888;2023-03-02T01:03:13;1.60;99.90
34153;DHT22;20426;48.372;10.888;2023-03-02T01:03:44;1.60;99.90
34153;DHT22;20426;48.372;10.888;2023-03-02T01:04:15;1.60;99.90
34153;DHT22;20426;48.372;10.888;2023-03-02T01:04:46;1.60;99.90
34153;DHT22;20426;48.372;10.888;2023-03-02T01:05:17;1.60;99.90
34153;DHT22;20426;48.372;10.888;2023-03-02T01:05:48;1.60;99.90
34153;DHT22;20426;48.372;10.888;2023-03-02T01:06:20;1.60;99.90
34153;DHT22;20426;48.372;10.888;2023-03-02T01:06:50;1.60;99.90
34153;DHT22;20426;48.372;10.888;2023-03-02T01:07:21;1.60;99.90
34153;DHT22;20426;48.372;10.888;2023-03-02T01:07:54;1.60;99.90
34153;DHT22;20426;48.372;10.888;2023-03-02T01:08:25;1.60;99.90
34153;DHT22;20426;48.372;10.888;2023-03-02T01:08:55;1.60;99.90
34153;DHT22;20426;48.372;10.888;2023-03-02T01:09:27;1.60;99.90
34153;DHT22;20426;48.372;10.888;2023-03-02T01:09:58;1.60;99.90
34153;DHT22;20426;48.372;10.888;2023-03-02T01:10:31;1.60;99.90
34153;DHT22;20426;48.372;10.888;2023-03-02T01:11:02;1.60;99.90
34153;DHT22;20426;48.372;10.888;2023-03-02T01:11:33;1.50;99.90
34153;DHT22;20426;48.372;10.888;2023-03-02T01:12:04;1.50;99.90
34153;DHT22;20426;48.372;10.888;2023-03-02T01:12:39;1.60;99.90
34153;DHT22;20426;48.372;10.888;2023-03-02T01:13:09;1.50;99.90
34153;DHT22;20426;48.372;10.888;2023-03-02T01:13:40;1.60;99.90
34153;DHT22;20426;48.372;10.888;2023-03-02T01:14:11;1.50;99.90
34153;DHT22;20426;48.372;10.888;2023-03-02T01:14:45;1.50;99.90
34153;DHT22;20426;48.372;10.888;2023-03-02T01:15:16;1.50;99.90
34153;DHT22;20426;48.372;10.888;2023-03-02T01:15:47;1.50;99.90
34153;DHT22;20426;48.372;10.888;2023-03-02T01:16:18;1.60;99.90
34153;DHT22;20426;48.372;10.888;2023-03-02T01:16:48;1.50;99.90
34153;DHT22;20426;48.372;10.888;2023-03-02T01:17:19;1.50;99.90
34153;DHT22;20426;48.372;10.888;2023-03-02T01:17:52;1.50;99.90
34153;DHT22;20426;48.372;10.888;2023-03-02T01:18:22;1.50;99.90
34153;DHT22;20426;48.372;10.888;2023-03-02T01:18:53;1.50;99.90
34153;DHT22;20426;48.372;10.888;2023-03-02T01:19:24;1.60;99.90
34153;DHT22;20426;48.372;10.888;2023-03-02T01:19:55;1.50;99.90
34153;DHT22;20426;48.372;10.888;2023-03-02T01:20:27;1.50;99.90
34153;DHT22;20426;48.372;10.888;2023-03-02T01:21:06;1.50;99.90
34153;DHT22;20426;48.372;10.888;2023-03-02T01:21:37;1.60;99.90
34153;DHT22;20426;48.372;10.888;2023-03-02T01:22:08;1.50;99.90
34153;DHT22;20426;48.372;10.888;2023-03-02T01:22:39;1.50;99.90
34153;DHT22;20426;48.372;10.888;2023-03-02T01:23:09;1.50;99.90
34153;DHT22;20426;48.372;10.888;2023-03-02T01:23:40;1.50;99.90
34153;DHT22;20426;48.372;10.888;2023-03-02T01:24:11;1.50;99.90
34153;DHT22;20426;48.372;10.888;2023-03-02T01:24:42;1.50;99.90
34153;DHT22;20426;48.372;10.888;2023-03-02T01:25:13;1.50;99.90
34153;DHT22;20426;48.372;10.888;2023-03-02T01:25:44;1.50;99.90
34153;DHT22;20426;48.372;10.888;2023-03-02T01:26:14;1.50;99.90
34153;DHT22;20426;48.372;10.888;2023-03-02T01:26:45;1.40;99.90
34153;DHT22;20426;48.372;10.888;2023-03-02T01:27:16;1.40;99.90
34153;DHT22;20426;48.372;10.888;2023-03-02T01:27:46;1.40;99.90
34153;DHT22;20426;48.372;10.888;2023-03-02T01:28:17;1.40;99.90
34153;DHT22;20426;48.372;10.888;2023-03-02T01:28:48;1.40;99.90
34153;DHT22;20426;48.372;10.888;2023-03-02T01:29:19;1.40;99.90
34153;DHT22;20426;48.372;10.888;2023-03-02T01:29:49;1.40;99.90
34153;DHT22;20426;48.372;10.888;2023-03-02T01:30:20;1.40;99.90
34153;DHT22;20426;48.372;10.888;2023-03-02T01:30:51;1.40;99.90
34153;DHT22;20426;48.372;10.888;2023-03-02T01:31:23;1.40;99.90
34153;DHT22;20426;48.372;10.888;2023-03-02T01:31:54;1.40;99.90
34153;DHT22;20426;48.372;10.888;2023-03-02T01:32:25;1.40;99.90
34153;DHT22;20426;48.372;10.888;2023-03-02T01:32:56;1.40;99.90
34153;DHT22;20426;48.372;10.888;2023-03-02T01:33:27;1.40;99.90
34153;DHT22;20426;48.372;10.888;2023-03-02T01:33:58;1.40;99.90
34153;DHT22;20426;48.372;10.888;2023-03-02T01:34:29;1.40;99.90
34153;DHT22;20426;48.372;10.888;2023-03-02T01:35:00;1.40;99.90
34153;DHT22;20426;48.372;10.888;2023-03-02T01:35:30;1.40;99.90
34153;DHT22;20426;48.372;10.888;2023-03-02T01:36:01;1.40;99.90
34153;DHT22;20426;48.372;10.888;2023-03-02T01:36:32;1.30;99.90
34153;DHT22;20426;48.372;10.888;2023-03-02T01:37:03;1.30;99.90
34153;DHT22;20426;48.372;10.888;2023-03-02T01:37:34;1.30;99.90
34153;DHT22;20426;48.372;10.888;2023-03-02T01:38:04;1.30;99.90
34153;DHT22;20426;48.372;10.888;2023-03-02T01:38:35;1.30;99.90
34153;DHT22;20426;48.372;10.888;2023-03-02T01:39:06;1.30;99.90
34153;DHT22;20426;48.372;10.888;2023-03-02T01:39:37;1.40;99.90
34153;DHT22;20426;48.372;10.888;2023-03-02T01:40:09;1.40;99.90
34153;DHT22;20426;48.372;10.888;2023-03-02T01:40:40;1.30;99.90
34153;DHT22;20426;48.372;10.888;2023-03-02T01:41:11;1.30;99.90
34153;DHT22;20426;48.372;10.888;2023-03-02T01:41:43;1.30;99.90
34153;DHT22;20426;48.372;10.888;2023-03-02T01:42:15;1.40;99.90
34153;DHT22;20426;48.372;10.888;2023-03-02T01:42:52;1.30;99.90
34153;DHT22;20426;48.372;10.888;2023-03-02T01:43:26;1.30;99.90
34153;DHT22;20426;48.372;10.888;2023-03-02T01:43:58;1.30;99.90
34153;DHT22;20426;48.372;10.888;2023-03-02T01:46:27;1.30;99.90
34153;DHT22;20426;48.372;10.888;2023-03-02T01:47:19;1.30;99.90
34153;DHT22;20426;48.372;10.888;2023-03-02T01:47:51;1.30;99.90
34153;DHT22;20426;48.372;10.888;2023-03-02T01:48:28;1.30;99.90
34153;DHT22;20426;48.372;10.888;2023-03-02T01:49:04;1.30;99.90
34153;DHT22;20426;48.372;10.888;2023-03-02T01:49:36;1.30;99.90
34153;DHT22;20426;48.372;10.888;2023-03-02T01:50:20;1.30;99.90
34153;DHT22;20426;48.372;10.888;2023-03-02T01:50:52;1.30;99.90
34153;DHT22;20426;48.372;10.888;2023-03-02T01:51:25;1.30;99.90
34153;DHT22;20426;48.372;10.888;2023-03-02T01:51:57;1.30;99.90
34153;DHT22;20426;48.372;10.888;2023-03-02T01:52:30;1.20;99.90
34153;DHT22;20426;48.372;10.888;2023-03-02T01:53:01;1.30;99.90
34153;DHT22;20426;48.372;10.888;2023-03-02T01:53:33;1.20;99.90
34153;DHT22;20426;48.372;10.888;2023-03-02T01:54:08;1.20;99.90
34153;DHT22;20426;48.372;10.888;2023-03-02T01:54:41;1.30;99.90
34153;DHT22;20426;48.372;10.888;2023-03-02T01:55:13;1.20;99.90
34153;DHT22;20426;48.372;10.888;2023-03-02T01:55:46;1.20;99.90
34153;DHT22;20426;48.372;10.888;2023-03-02T01:56:24;1.20;99.90
34153;DHT22;20426;48.372;10.888;2023-03-02T01:56:58;1.20;99.90
34153;DHT22;20426;48.372;10.888;2023-03-02T01:57:33;1.20;99.90
34153;DHT22;20426;48.372;10.888;2023-03-02T01:58:05;1.30;99.90
34153;DHT22;20426;48.372;10.888;2023-03-02T01:58:36;1.30;99.90
34153;DHT22;20426;48.372;10.888;2023-03-02T01:59:13;1.30;99.90
34153;DHT22;20426;48.372;10.888;2023-03-02T01:59:45;1.20;99.90
34153;DHT22;20426;48.372;10.888;2023-03-02T02:00:21;1.20;99.90
34153;DHT22;20426;48.372;10.888;2023-03-02T02:00:53;1.30;99.90
34153;DHT22;20426;48.372;10.888;2023-03-02T02:01:25;1.20;99.90
34153;DHT22;20426;48.372;10.888;2023-03-02T02:01:59;1.20;99.90
34153;DHT22;20426;48.372;10.888;2023-03-02T02:02:31;1.20;99.90
34153;DHT22;20426;48.372;10.888;2023-03-02T02:03:07;1.20;99.90
34153;DHT22;20426;48.372;10.888;2023-03-02T02:03:38;1.20;99.90
34153;DHT22;20426;48.372;10.888;2023-03-02T02:04:10;1.20;99.90
34153;DHT22;20426;48.372;10.888;2023-03-02T02:04:42;1.20;99.90
34153;DHT22;20426;48.372;10.888;2023-03-02T02:05:20;1.20;99.90
34153;DHT22;20426;48.372;10.888;2023-03-02T02:06:55;1.10;99.90
34153;DHT22;20426;48.372;10.888;2023-03-02T02:07:27;1.10;99.90
34153;DHT22;20426;48.372;10.888;2023-03-02T02:07:58;1.10;99.90
34153;DHT22;20426;48.372;10.888;2023-03-02T02:08:29;1.20;99.90
34153;DHT22;20426;48.372;10.888;2023-03-02T02:09:01;1.20;99.90
34153;DHT22;20426;48.372;10.888;2023-03-02T02:09:43;1.20;99.90
34153;DHT22;20426;48.372;10.888;2023-03-02T02:10:15;1.20;99.90
34153;DHT22;20426;48.372;10.888;2023-03-02T02:10:45;1.20;99.90
34153;DHT22;20426;48.372;10.888;2023-03-02T02:11:16;1.20;99.90
34153;DHT22;20426;48.372;10.888;2023-03-02T02:11:48;1.20;99.90
34153;DHT22;20426;48.372;10.888;2023-03-02T02:12:21;1.20;99.90
34153;DHT22;20426;48.372;10.888;2023-03-02T02:12:52;1.20;99.90
34153;DHT22;20426;48.372;10.888;2023-03-02T02:13:22;1.20;99.90
34153;DHT22;20426;48.372;10.888;2023-03-02T02:13:56;1.10;99.90
34153;DHT22;20426;48.372;10.888;2023-03-02T02:14:28;1.20;99.90
34153;DHT22;20426;48.372;10.888;2023-03-02T02:14:59;1.20;99.90
34153;DHT22;20426;48.372;10.888;2023-03-02T02:15:30;1.20;99.90
34153;DHT22;20426;48.372;10.888;2023-03-02T02:16:01;1.20;99.90
34153;DHT22;20426;48.372;10.888;2023-03-02T02:16:33;1.20;99.90
34153;DHT22;20426;48.372;10.888;2023-03-02T02:17:04;1.20;99.90
34153;DHT22;20426;48.372;10.888;2023-03-02T02:17:35;1.20;99.90
34153;DHT22;20426;48.372;10.888;2023-03-02T02:18:06;1.20;99.90
34153;DHT22;20426;48.372;10.888;2023-03-02T02:18:39;1.20;99.90
34153;DHT22;20426;48.372;10.888;2023-03-02T02:19:24;1.10;99.90
34153;DHT22;20426;48.372;10.888;2023-03-02T02:20:16;1.10;99.90
34153;DHT22;20426;48.372;10.888;2023-03-02T02:20:51;1.10;99.90
34153;DHT22;20426;48.372;10.888;2023-03-02T02:21:24;1.10;99.90
34153;DHT22;20426;48.372;10.888;2023-03-02T02:21:56;1.10;99.90
34153;DHT22;20426;48.372;10.888;2023-03-02T02:23:49;1.20;99.90
34153;DHT22;20426;48.372;10.888;2023-03-02T02:25:07;1.10;99.90
34153;DHT22;20426;48.372;10.888;2023-03-02T02:25:51;1.10;99.90
34153;DHT22;20426;48.372;10.888;2023-03-02T02:26:36;1.10;99.90
34153;DHT22;20426;48.372;10.888;2023-03-02T02:27:08;1.10;99.90
34153;DHT22;20426;48.372;10.888;2023-03-02T02:27:40;1.20;99.90
34153;DHT22;20426;48.372;10.888;2023-03-02T02:28:15;1.10;99.90
34153;DHT22;20426;48.372;10.888;2023-03-02T02:28:59;1.10;99.90
34153;DHT22;20426;48.372;10.888;2023-03-02T02:29:33;1.20;99.90
34153;DHT22;20426;48.372;10.888;2023-03-02T02:30:05;1.10;99.90
34153;DHT22;20426;48.372;10.888;2023-03-02T02:30:37;1.10;99.90
34153;DHT22;20426;48.372;10.888;2023-03-02T02:31:49;1.10;99.90
34153;DHT22;20426;48.372;10.888;2023-03-02T02:32:25;1.10;99.90
34153;DHT22;20426;48.372;10.888;2023-03-02T02:32:57;1.10;99.90
34153;DHT22;20426;48.372;10.888;2023-03-02T02:33:31;1.10;99.90
34153;DHT22;20426;48.372;10.888;2023-03-02T02:34:33;1.20;99.90
34153;DHT22;20426;48.372;10.888;2023-03-02T02:35:20;1.20;99.90
34153;DHT22;20426;48.372;10.888;2023-03-02T02:35:54;1.20;99.90
34153;DHT22;20426;48.372;10.888;2023-03-02T02:36:30;1.20;99.90
34153;DHT22;20426;48.372;10.888;2023-03-02T02:37:11;1.20;99.90
34153;DHT22;20426;48.372;10.888;2023-03-02T02:37:53;1.20;99.90
34153;DHT22;20426;48.372;10.888;2023-03-02T02:38:25;1.20;99.90
34153;DHT22;20426;48.372;10.888;2023-03-02T02:38:56;1.20;99.90
34153;DHT22;20426;48.372;10.888;2023-03-02T02:39:29;1.20;99.90
34153;DHT22;20426;48.372;10.888;2023-03-02T02:40:02;1.20;99.90
34153;DHT22;20426;48.372;10.888;2023-03-02T02:41:18;1.10;99.90
34153;DHT22;20426;48.372;10.888;2023-03-02T02:41:54;1.20;99.90
34153;DHT22;20426;48.372;10.888;2023-03-02T02:42:29;1.10;99.90
34153;DHT22;20426;48.372;10.888;2023-03-02T02:43:02;1.20;99.90
34153;DHT22;20426;48.372;10.888;2023-03-02T02:43:33;1.20;99.90
34153;DHT22;20426;48.372;10.888;2023-03-02T02:44:04;1.20;99.90
34153;DHT22;20426;48.372;10.888;2023-03-02T02:44:35;1.20;99.90
34153;DHT22;20426;48.372;10.888;2023-03-02T02:45:50;1.20;99.90
34153;DHT22;20426;48.372;10.888;2023-03-02T02:46:22;1.20;99.90
34153;DHT22;20426;48.372;10.888;2023-03-02T02:46:53;1.20;99.90
34153;DHT22;20426;48.372;10.888;2023-03-02T02:47:23;1.20;99.90
34153;DHT22;20426;48.372;10.888;2023-03-02T02:47:55;1.20;99.90
34153;DHT22;20426;48.372;10.888;2023-03-02T02:48:27;1.20;99.90
34153;DHT22;20426;48.372;10.888;2023-03-02T02:49:01;1.20;99.90
34153;DHT22;20426;48.372;10.888;2023-03-02T02:49:35;1.20;99.90
34153;DHT22;20426;48.372;10.888;2023-03-02T02:50:16;1.20;99.90
34153;DHT22;20426;48.372;10.888;2023-03-02T02:50:47;1.20;99.90
34153;DHT22;20426;48.372;10.888;2023-03-02T02:51:25;1.10;99.90
34153;DHT22;20426;48.372;10.888;2023-03-02T02:51:57;1.10;99.90
34153;DHT22;20426;48.372;10.888;2023-03-02T02:52:28;1.10;99.90
34153;DHT22;20426;48.372;10.888;2023-03-02T02:53:05;1.10;99.90
34153;DHT22;20426;48.372;10.888;2023-03-02T02:53:58;1.10;99.90
34153;DHT22;20426;48.372;10.888;2023-03-02T02:54:30;1.10;99.90
34153;DHT22;20426;48.372;10.888;2023-03-02T02:55:01;1.10;99.90
34153;DHT22;20426;48.372;10.888;2023-03-02T02:55:34;1.10;99.90
34153;DHT22;20426;48.372;10.888;2023-03-02T02:56:05;1.10;99.90
34153;DHT22;20426;48.372;10.888;2023-03-02T02:56:38;1.10;99.90
34153;DHT22;20426;48.372;10.888;2023-03-02T02:57:11;1.10;99.90
34153;DHT22;20426;48.372;10.888;2023-03-02T02:57:42;1.00;99.90
34153;DHT22;20426;48.372;10.888;2023-03-02T02:58:42;1.00;99.90
34153;DHT22;20426;48.372;10.888;2023-03-02T02:59:22;1.00;99.90
34153;DHT22;20426;48.372;10.888;2023-03-02T02:59:59;1.00;99.90
34153;DHT22;20426;48.372;10.888;2023-03-02T03:00:30;1.00;99.90
34153;DHT22;20426;48.372;10.888;2023-03-02T03:01:01;1.00;99.90
34153;DHT22;20426;48.372;10.888;2023-03-02T03:01:33;0.90;99.90
34153;DHT22;20426;48.372;10.888;2023-03-02T03:02:04;0.90;99.90
34153;DHT22;20426;48.372;10.888;2023-03-02T03:02:39;0.90;99.90
34153;DHT22;20426;48.372;10.888;2023-03-02T03:03:31;1.00;99.90
34153;DHT22;20426;48.372;10.888;2023-03-02T03:04:04;1.00;99.90
34153;DHT22;20426;48.372;10.888;2023-03-02T03:04:35;1.00;99.90
34153;DHT22;20426;48.372;10.888;2023-03-02T03:05:12;1.00;99.90
34153;DHT22;20426;48.372;10.888;2023-03-02T03:05:43;1.00;99.90
34153;DHT22;20426;48.372;10.888;2023-03-02T03:06:19;1.00;99.90
34153;DHT22;20426;48.372;10.888;2023-03-02T03:06:58;1.00;99.90
34153;DHT22;20426;48.372;10.888;2023-03-02T03:07:31;1.00;99.90
34153;DHT22;20426;48.372;10.888;2023-03-02T03:08:09;1.00;99.90
34153;DHT22;20426;48.372;10.888;2023-03-02T03:08:49;1.00;99.90
34153;DHT22;20426;48.372;10.888;2023-03-02T03:09:22;1.00;99.90
34153;DHT22;20426;48.372;10.888;2023-03-02T03:10:32;1.00;99.90
34153;DHT22;20426;48.372;10.888;2023-03-02T03:11:09;1.00;99.90
34153;DHT22;20426;48.372;10.888;2023-03-02T03:11:43;1.10;99.90
34153;DHT22;20426;48.372;10.888;2023-03-02T03:12:20;1.00;99.90
34153;DHT22;20426;48.372;10.888;2023-03-02T03:12:51;1.00;99.90
34153;DHT22;20426;48.372;10.888;2023-03-02T03:13:22;1.00;99.90
34153;DHT22;20426;48.372;10.888;2023-03-02T03:14:07;1.00;99.90
34153;DHT22;20426;48.372;10.888;2023-03-02T03:14:39;1.00;99.90
34153;DHT22;20426;48.372;10.888;2023-03-02T03:15:10;1.00;99.90
34153;DHT22;20426;48.372;10.888;2023-03-02T03:15:42;1.00;99.90
34153;DHT22;20426;48.372;10.888;2023-03-02T03:16:15;1.00;99.90
34153;DHT22;20426;48.372;10.888;2023-03-02T03:16:49;0.90;99.90
34153;DHT22;20426;48.372;10.888;2023-03-02T03:17:20;0.90;99.90
34153;DHT22;20426;48.372;10.888;2023-03-02T03:17:55;1.00;99.90
34153;DHT22;20426;48.372;10.888;2023-03-02T03:18:26;1.00;99.90
34153;DHT22;20426;48.372;10.888;2023-03-02T03:19:46;1.00;99.90
34153;DHT22;20426;48.372;10.888;2023-03-02T03:19:51;1.00;99.90
34153;DHT22;20426;48.372;10.888;2023-03-02T03:20:23;1.00;99.90
34153;DHT22;20426;48.372;10.888;2023-03-02T03:20:55;1.00;99.90
34153;DHT22;20426;48.372;10.888;2023-03-02T03:21:26;1.00;99.90
34153;DHT22;20426;48.372;10.888;2023-03-02T03:22:00;1.00;99.90
34153;DHT22;20426;48.372;10.888;2023-03-02T03:22:34;1.00;99.90
34153;DHT22;20426;48.372;10.888;2023-03-02T03:23:04;1.00;99.90
34153;DHT22;20426;48.372;10.888;2023-03-02T03:23:35;1.00;99.90
34153;DHT22;20426;48.372;10.888;2023-03-02T03:24:07;1.00;99.90
34153;DHT22;20426;48.372;10.888;2023-03-02T03:24:39;1.00;99.90
34153;DHT22;20426;48.372;10.888;2023-03-02T03:25:10;1.00;99.90
34153;DHT22;20426;48.372;10.888;2023-03-02T03:25:44;0.90;99.90
34153;DHT22;20426;48.372;10.888;2023-03-02T03:26:15;0.90;99.90
34153;DHT22;20426;48.372;10.888;2023-03-02T03:26:47;1.00;99.90
34153;DHT22;20426;48.372;10.888;2023-03-02T03:27:18;1.00;99.90
34153;DHT22;20426;48.372;10.888;2023-03-02T03:27:48;1.00;99.90
34153;DHT22;20426;48.372;10.888;2023-03-02T03:28:19;1.00;99.90
34153;DHT22;20426;48.372;10.888;2023-03-02T03:28:50;1.00;99.90
34153;DHT22;20426;48.372;10.888;2023-03-02T03:29:23;0.90;99.90
34153;DHT22;20426;48.372;10.888;2023-03-02T03:29:54;0.90;99.90
34153;DHT22;20426;48.372;10.888;2023-03-02T03:30:25;0.90;99.90
34153;DHT22;20426;48.372;10.888;2023-03-02T03:30:56;1.00;99.90
34153;DHT22;20426;48.372;10.888;2023-03-02T03:31:27;1.00;99.90
34153;DHT22;20426;48.372;10.888;2023-03-02T03:31:58;1.00;99.90
34153;DHT22;20426;48.372;10.888;2023-03-02T03:32:29;1.00;99.90
34153;DHT22;20426;48.372;10.888;2023-03-02T03:33:04;1.00;99.90
34153;DHT22;20426;48.372;10.888;2023-03-02T03:33:35;1.00;99.90
34153;DHT22;20426;48.372;10.888;2023-03-02T03:34:07;1.00;99.90
34153;DHT22;20426;48.372;10.888;2023-03-02T03:34:38;1.00;99.90
34153;DHT22;20426;48.372;10.888;2023-03-02T03:35:11;1.00;99.90
34153;DHT22;20426;48.372;10.888;2023-03-02T03:35:42;1.00;99.90